createdAt,value
2022-09-23T00:03:00.036Z,75.79
2022-09-23T00:06:10.884Z,75.92
2022-09-23T00:09:12.923Z,74.74
2022-09-23T00:12:14.951Z,75.14
2022-09-23T00:15:17.682Z,75.07
2022-09-23T00:18:20.850Z,74.50
2022-09-23T00:21:23.074Z,74.37
2022-09-23T00:24:25.225Z,74.95
2022-09-23T00:27:27.279Z,74.63
2022-09-23T00:30:31.271Z,74.38
2022-09-23T00:33:33.354Z,74.98
2022-09-23T00:36:35.449Z,74.99
2022-09-23T00:39:37.581Z,74.76
2022-09-23T00:42:49.481Z,74.39
2022-09-23T00:45:51.566Z,74.77
2022-09-23T00:49:08.904Z,74.85
2022-09-23T00:52:15.407Z,74.46
2022-09-23T00:55:25.347Z,74.57
2022-09-23T00:58:31.241Z,73.41
2022-09-23T01:01:33.445Z,74.06
2022-09-23T01:04:35.551Z,73.80
2022-09-23T01:07:37.619Z,74.56
2022-09-23T01:11:06.173Z,74.58
2022-09-23T01:14:43.275Z,73.50
2022-09-23T01:18:21.821Z,73.52
2022-09-23T01:21:36.174Z,72.91
2022-09-23T01:24:46.811Z,72.92
2022-09-23T01:28:07.041Z,72.64
2022-09-23T01:31:27.229Z,72.48
2022-09-23T01:34:55.909Z,72.66
2022-09-23T01:38:12.196Z,73.29
2022-09-23T01:41:21.700Z,72.96
2022-09-23T01:44:51.354Z,72.40
2022-09-23T01:47:58.365Z,73.19
2022-09-23T01:51:14.085Z,73.39
2022-09-23T01:54:36.530Z,74.05
2022-09-23T01:57:53.422Z,74.07
2022-09-23T02:01:00.694Z,74.04
2022-09-23T02:04:25.996Z,73.85
2022-09-23T02:07:36.285Z,74.00
2022-09-23T02:10:53.259Z,73.74
2022-09-23T02:14:15.499Z,73.83
2022-09-23T02:17:54.284Z,73.95
2022-09-23T02:21:08.773Z,73.88
2022-09-23T02:24:30.030Z,73.60
2022-09-23T02:27:40.520Z,73.13
2022-09-23T02:30:50.526Z,73.26
2022-09-23T02:34:14.994Z,72.63
2022-09-23T02:37:32.808Z,71.75
2022-09-23T02:40:38.889Z,72.05
2022-09-23T02:43:52.035Z,71.39
2022-09-23T02:46:54.692Z,71.82
2022-09-23T02:49:56.748Z,71.00
2022-09-23T02:52:59.996Z,71.25
2022-09-23T02:56:03.364Z,71.20
2022-09-23T02:59:06.183Z,71.45
2022-09-23T03:02:14.248Z,70.71
2022-09-23T03:05:25.596Z,70.30
2022-09-23T03:08:37.287Z,70.24
2022-09-23T03:11:42.310Z,69.92
2022-09-23T03:14:54.974Z,69.51
2022-09-23T03:18:16.853Z,69.36
2022-09-23T03:21:41.736Z,69.34
2022-09-23T03:24:44.905Z,68.06
2022-09-23T03:27:47.162Z,68.51
2022-09-23T03:30:51.110Z,67.84
2022-09-23T03:33:55.971Z,68.37
2022-09-23T03:37:24.327Z,67.32
2022-09-23T03:40:35.351Z,68.01
2022-09-23T03:43:38.974Z,68.54
2022-09-23T03:46:42.910Z,68.51
2022-09-23T03:49:48.484Z,68.84
2022-09-23T03:52:50.647Z,69.32
2022-09-23T03:55:52.755Z,69.49
2022-09-23T03:58:54.838Z,69.17
2022-09-23T04:01:57.253Z,69.02
2022-09-23T04:04:59.410Z,70.07
2022-09-23T04:08:01.883Z,69.78
2022-09-23T04:11:04.792Z,69.56
2022-09-23T04:14:07.237Z,70.15
2022-09-23T04:17:09.408Z,70.72
2022-09-23T04:20:11.472Z,71.02
2022-09-23T04:23:13.576Z,70.79
2022-09-23T04:26:15.922Z,71.37
2022-09-23T04:29:18.128Z,71.76
2022-09-23T04:32:20.206Z,71.77
2022-09-23T04:35:22.332Z,72.22
2022-09-23T04:38:24.402Z,72.71
2022-09-23T04:41:26.487Z,72.58
2022-09-23T04:44:29.568Z,72.61
2022-09-23T04:47:32.736Z,72.38
2022-09-23T04:50:34.943Z,72.65
2022-09-23T04:53:37.884Z,72.95
2022-09-23T04:56:40.119Z,72.92
2022-09-23T04:59:42.151Z,73.07
2022-09-23T05:02:48.867Z,72.95
2022-09-23T05:05:51.061Z,73.16
2022-09-23T05:08:54.691Z,73.28
2022-09-23T05:11:56.775Z,73.30
2022-09-23T05:14:59.622Z,72.63
2022-09-23T05:18:02.606Z,72.09
2022-09-23T05:21:04.767Z,72.40
2022-09-23T05:24:06.963Z,72.87
2022-09-23T05:27:09.372Z,72.83
2022-09-23T05:30:11.774Z,72.89
2022-09-23T05:33:14.239Z,72.75
2022-09-23T05:36:19.966Z,73.40
2022-09-23T05:39:22.011Z,73.28
2022-09-23T05:42:24.138Z,73.52
2022-09-23T05:45:26.984Z,73.76
2022-09-23T05:48:34.563Z,73.49
2022-09-23T05:51:36.807Z,73.79
2022-09-23T05:54:39.280Z,73.71
2022-09-23T05:57:41.359Z,74.41
2022-09-23T06:00:44.138Z,73.65
2022-09-23T06:03:49.858Z,73.81
2022-09-23T06:06:51.996Z,73.58
2022-09-23T06:09:54.317Z,73.29
2022-09-23T06:12:56.475Z,73.51
2022-09-23T06:15:58.749Z,74.18
2022-09-23T06:19:05.972Z,74.47
2022-09-23T06:22:08.756Z,74.30
2022-09-23T06:25:11.301Z,74.18
2022-09-23T06:28:14.539Z,74.31
2022-09-23T06:31:17.100Z,74.04
2022-09-23T06:34:19.688Z,73.10
2022-09-23T06:37:22.090Z,73.39
2022-09-23T06:40:24.279Z,73.36
2022-09-23T06:43:26.919Z,72.74
2022-09-23T06:46:31.292Z,72.80
2022-09-23T06:49:33.934Z,72.44
2022-09-23T06:52:37.037Z,72.70
2022-09-23T06:55:39.138Z,73.12
2022-09-23T06:58:41.341Z,73.27
2022-09-23T07:01:45.326Z,73.41
2022-09-23T07:04:47.513Z,72.85
2022-09-23T07:07:49.572Z,72.94
2022-09-23T07:10:53.432Z,73.13
2022-09-23T07:13:55.562Z,72.96
2022-09-23T07:16:59.954Z,73.19
2022-09-23T07:20:02.366Z,72.71
2022-09-23T07:23:04.430Z,72.59
2022-09-23T07:26:07.875Z,72.15
2022-09-23T07:29:13.311Z,71.49
2022-09-23T07:32:15.526Z,71.30
2022-09-23T07:35:17.830Z,71.45
2022-09-23T07:38:19.994Z,70.51
2022-09-23T07:41:22.054Z,71.34
2022-09-23T07:44:25.572Z,70.92
2022-09-23T07:47:27.661Z,71.03
2022-09-23T07:50:31.885Z,69.87
2022-09-23T07:53:33.993Z,69.15
2022-09-23T07:56:36.617Z,70.83
2022-09-23T07:59:39.524Z,68.89
2022-09-23T08:02:41.978Z,70.87
2022-09-23T08:05:44.124Z,70.28
2022-09-23T08:08:51.166Z,69.86
2022-09-23T08:11:55.324Z,68.95
2022-09-23T08:14:57.838Z,69.60
2022-09-23T08:18:00.520Z,68.81
2022-09-23T08:21:02.864Z,68.51
2022-09-23T08:24:12.750Z,68.33
2022-09-23T08:27:14.811Z,67.66
2022-09-23T08:30:16.899Z,67.60
2022-09-23T08:33:23.128Z,67.05
2022-09-23T08:36:25.963Z,66.81
2022-09-23T08:39:28.043Z,68.16
2022-09-23T08:42:32.602Z,67.02
2022-09-23T08:45:35.135Z,65.92
2022-09-23T08:48:42.752Z,66.83
2022-09-23T08:51:46.536Z,67.67
2022-09-23T08:54:53.184Z,64.91
2022-09-23T08:58:25.629Z,65.58
2022-09-23T09:01:40.633Z,66.27
2022-09-23T09:04:44.554Z,65.06
2022-09-23T09:07:46.690Z,65.15
2022-09-23T09:10:48.755Z,65.08
2022-09-23T09:14:39.127Z,65.98
2022-09-23T09:18:07.840Z,64.66
2022-09-23T09:21:13.240Z,63.21
2022-09-23T09:24:25.083Z,63.09
2022-09-23T09:27:27.158Z,64.44
2022-09-23T09:30:29.228Z,63.26
2022-09-23T09:33:58.779Z,62.08
2022-09-23T09:37:35.837Z,61.75
2022-09-23T09:40:37.917Z,61.17
2022-09-23T09:43:44.182Z,61.65
2022-09-23T09:47:40.574Z,61.39
2022-09-23T09:50:52.623Z,63.04
2022-09-23T09:53:56.068Z,60.00
2022-09-23T09:56:58.239Z,61.98
2022-09-23T10:00:22.113Z,62.70
2022-09-23T10:03:39.041Z,61.58
2022-09-23T10:06:41.960Z,61.02
2022-09-23T10:09:51.161Z,61.10
2022-09-23T10:12:53.301Z,60.35
2022-09-23T10:15:56.758Z,59.59
2022-09-23T10:19:00.432Z,59.52
2022-09-23T10:22:22.499Z,59.79
2022-09-23T10:25:26.603Z,60.08
2022-09-23T10:28:48.678Z,62.16
2022-09-23T10:31:53.798Z,61.22
2022-09-23T10:35:13.363Z,60.87
2022-09-23T10:38:15.455Z,57.81
2022-09-23T10:41:56.581Z,57.90
2022-09-23T10:45:39.767Z,57.04
2022-09-23T10:49:12.243Z,54.10
2022-09-23T10:52:36.278Z,56.39
2022-09-23T10:55:56.865Z,56.88
2022-09-23T10:59:28.039Z,59.02
2022-09-23T11:03:04.352Z,54.99
2022-09-23T11:06:25.098Z,53.68
2022-09-23T11:09:51.774Z,54.34
2022-09-23T11:13:24.605Z,53.33
2022-09-23T11:17:06.036Z,54.27
2022-09-23T11:20:48.747Z,53.74
2022-09-23T11:24:07.370Z,57.89
2022-09-23T11:27:50.744Z,54.19
2022-09-23T11:31:14.652Z,55.14
2022-09-23T11:34:40.630Z,55.47
2022-09-23T11:37:49.145Z,56.22
2022-09-23T11:40:54.885Z,55.24
2022-09-23T11:44:14.446Z,53.09
2022-09-23T11:47:39.808Z,52.66
2022-09-23T11:51:05.376Z,56.87
2022-09-23T11:54:25.102Z,58.22
2022-09-23T11:58:01.050Z,55.45
2022-09-23T12:01:14.564Z,53.68
2022-09-23T12:04:51.967Z,56.55
2022-09-23T12:08:39.177Z,59.08
2022-09-23T12:12:09.806Z,56.06
2022-09-23T12:15:41.303Z,57.27
2022-09-23T12:19:11.186Z,54.70
2022-09-23T12:22:54.300Z,55.45
2022-09-23T12:26:01.802Z,54.94
2022-09-23T12:29:04.922Z,50.48
2022-09-23T12:32:09.949Z,47.79
2022-09-23T12:35:38.610Z,49.25
2022-09-23T12:39:02.168Z,50.54
2022-09-23T12:42:06.773Z,50.12
2022-09-23T12:45:31.449Z,54.39
2022-09-23T12:48:54.475Z,55.77
2022-09-23T12:52:17.643Z,50.47
2022-09-23T12:55:23.254Z,47.87
2022-09-23T12:58:43.332Z,52.53
2022-09-23T13:01:45.547Z,53.38
2022-09-23T13:05:27.023Z,48.73
2022-09-23T13:08:29.121Z,48.02
2022-09-23T13:11:31.275Z,45.49
2022-09-23T13:14:33.352Z,44.73
2022-09-23T13:17:39.806Z,45.77
2022-09-23T13:20:41.877Z,46.18
2022-09-23T13:24:12.713Z,44.00
2022-09-23T13:27:18.602Z,43.90
2022-09-23T13:30:26.480Z,42.77
2022-09-23T13:33:49.289Z,41.90
2022-09-23T13:36:51.516Z,42.15
2022-09-23T13:39:53.600Z,39.79
2022-09-23T13:43:04.902Z,40.22
2022-09-23T13:46:13.430Z,40.77
2022-09-23T13:49:41.560Z,40.55
2022-09-23T13:52:43.602Z,43.32
2022-09-23T13:55:50.215Z,39.44
2022-09-23T13:58:55.899Z,38.70
2022-09-23T14:02:12.616Z,41.61
2022-09-23T14:05:23.811Z,39.31
2022-09-23T14:08:26.505Z,41.98
2022-09-23T14:11:33.486Z,41.52
2022-09-23T14:14:37.128Z,42.21
2022-09-23T14:17:39.190Z,43.07
2022-09-23T14:20:50.602Z,46.17
2022-09-23T14:24:05.076Z,43.18
2022-09-23T14:27:07.025Z,40.56
2022-09-23T14:30:17.913Z,41.47
2022-09-23T14:33:28.247Z,46.42
2022-09-23T14:36:49.104Z,48.57
2022-09-23T14:39:54.557Z,47.67
2022-09-23T14:43:22.638Z,39.56
2022-09-23T14:46:36.021Z,48.21
2022-09-23T14:49:58.038Z,37.85
2022-09-23T14:53:00.746Z,34.16
2022-09-23T14:56:12.680Z,33.33
2022-09-23T14:59:49.012Z,45.80
2022-09-23T15:03:13.030Z,46.66
2022-09-23T15:06:15.147Z,38.77
2022-09-23T15:09:21.806Z,32.52
2022-09-23T15:12:23.883Z,34.10
2022-09-23T15:15:28.180Z,32.89
2022-09-23T15:18:35.687Z,34.20
2022-09-23T15:21:41.128Z,35.04
2022-09-23T15:24:46.466Z,41.89
2022-09-23T15:28:16.855Z,44.69
2022-09-23T15:31:20.406Z,44.29
2022-09-23T15:34:22.490Z,46.04
2022-09-23T15:37:24.556Z,39.16
2022-09-23T15:40:28.487Z,34.98
2022-09-23T15:43:34.570Z,40.15
2022-09-23T15:46:38.504Z,46.07
2022-09-23T15:49:40.702Z,46.57
2022-09-23T15:52:45.082Z,49.60
2022-09-23T15:55:47.509Z,52.28
2022-09-23T15:58:49.607Z,54.03
2022-09-23T16:01:52.362Z,53.91
2022-09-23T16:04:54.628Z,53.72
2022-09-23T16:07:56.673Z,53.64
2022-09-23T16:10:59.068Z,52.55
2022-09-23T16:14:01.301Z,39.04
2022-09-23T16:17:03.610Z,39.94
2022-09-23T16:20:06.207Z,43.08
2022-09-23T16:23:18.181Z,39.25
2022-09-23T16:26:31.149Z,41.04
2022-09-23T16:29:33.202Z,45.30
2022-09-23T16:32:35.332Z,47.05
2022-09-23T16:35:37.392Z,49.08
2022-09-23T16:38:39.508Z,51.17
2022-09-23T16:41:42.852Z,51.91
2022-09-23T16:44:44.976Z,53.67
2022-09-23T16:47:48.705Z,54.22
2022-09-23T16:50:54.730Z,56.45
2022-09-23T16:53:57.993Z,58.76
2022-09-23T16:57:00.067Z,59.20
2022-09-23T17:00:21.841Z,59.06
2022-09-23T17:03:42.362Z,58.35
2022-09-23T17:06:47.263Z,58.63
2022-09-23T17:09:50.658Z,58.19
2022-09-23T17:12:54.695Z,58.46
2022-09-23T17:15:56.918Z,58.68
2022-09-23T17:18:59.120Z,58.30
2022-09-23T17:22:01.189Z,59.71
2022-09-23T17:25:05.004Z,59.44
2022-09-23T17:28:07.056Z,60.63
2022-09-23T17:31:09.440Z,60.73
2022-09-23T17:34:11.695Z,61.38
2022-09-23T17:37:13.719Z,61.92
2022-09-23T17:40:15.965Z,61.73
2022-09-23T17:43:23.723Z,62.38
2022-09-23T17:46:25.883Z,63.50
2022-09-23T17:49:30.974Z,64.40
2022-09-23T17:52:33.090Z,64.17
2022-09-23T17:55:35.128Z,65.30
2022-09-23T17:58:37.515Z,65.79
2022-09-23T18:01:39.809Z,66.18
2022-09-23T18:04:41.886Z,67.06
2022-09-23T18:07:43.943Z,67.27
2022-09-23T18:10:46.031Z,67.28
2022-09-23T18:14:12.223Z,68.60
2022-09-23T18:17:14.350Z,69.64
2022-09-23T18:20:16.965Z,69.25
2022-09-23T18:23:21.825Z,68.65
2022-09-23T18:26:27.558Z,68.61
2022-09-23T18:29:29.652Z,68.94
2022-09-23T18:32:32.183Z,68.82
2022-09-23T18:35:34.271Z,68.25
2022-09-23T18:38:36.354Z,68.24
2022-09-23T18:41:38.438Z,67.65
2022-09-23T18:44:41.354Z,66.25
2022-09-23T18:48:02.341Z,65.89
2022-09-23T18:51:07.245Z,65.00
2022-09-23T18:54:09.380Z,65.04
2022-09-23T18:57:14.778Z,65.24
2022-09-23T19:00:16.971Z,65.68
2022-09-23T19:03:19.075Z,65.83
2022-09-23T19:06:21.412Z,67.07
2022-09-23T19:09:23.810Z,67.41
2022-09-23T19:12:25.938Z,67.80
2022-09-23T19:15:28.120Z,67.16
2022-09-23T19:18:31.584Z,67.24
2022-09-23T19:21:34.062Z,66.20
2022-09-23T19:24:36.148Z,66.66
2022-09-23T19:27:39.443Z,65.23
2022-09-23T19:30:41.622Z,63.35
2022-09-23T19:33:47.351Z,62.75
2022-09-23T19:36:56.301Z,61.78
2022-09-23T19:39:58.430Z,61.40
2022-09-23T19:43:00.619Z,63.02
2022-09-23T19:46:04.036Z,62.22
2022-09-23T19:49:07.108Z,62.33
2022-09-23T19:52:09.281Z,62.20
2022-09-23T19:55:11.612Z,61.65
2022-09-23T19:58:14.327Z,62.16
2022-09-23T20:01:16.489Z,63.39
2022-09-23T20:04:18.627Z,64.41
2022-09-23T20:07:20.658Z,65.51
2022-09-23T20:10:22.862Z,64.82
2022-09-23T20:13:24.903Z,64.33
2022-09-23T20:16:28.790Z,65.27
2022-09-23T20:19:30.983Z,65.31
2022-09-23T20:22:34.138Z,66.62
2022-09-23T20:25:54.909Z,68.68
2022-09-23T20:28:57.027Z,70.07
2022-09-23T20:31:59.270Z,71.06
2022-09-23T20:35:01.352Z,71.06
2022-09-23T20:38:07.858Z,70.84
2022-09-23T20:41:10.218Z,70.05
2022-09-23T20:44:12.808Z,69.70
2022-09-23T20:47:17.182Z,69.33
2022-09-23T20:50:19.490Z,69.88
2022-09-23T20:53:23.328Z,69.21
2022-09-23T20:56:25.707Z,68.03
2022-09-23T20:59:28.057Z,67.21
2022-09-23T21:02:30.169Z,67.71
2022-09-23T21:05:34.673Z,67.14
2022-09-23T21:08:37.303Z,66.88
2022-09-23T21:11:39.343Z,67.11
2022-09-23T21:14:41.429Z,66.66
2022-09-23T21:17:43.558Z,66.02
2022-09-23T21:20:55.247Z,65.94
2022-09-23T21:24:11.680Z,65.75
2022-09-23T21:27:19.849Z,65.58
2022-09-23T21:30:22.772Z,65.82
2022-09-23T21:33:25.540Z,66.02
2022-09-23T21:36:29.136Z,66.29
2022-09-23T21:39:31.213Z,66.17
2022-09-23T21:42:33.303Z,66.12
2022-09-23T21:45:35.370Z,65.91
2022-09-23T21:48:41.202Z,66.15
2022-09-23T21:51:43.302Z,66.42
2022-09-23T21:54:46.570Z,66.55
2022-09-23T21:57:49.025Z,65.98
2022-09-23T22:00:51.379Z,65.79
2022-09-23T22:03:58.468Z,65.09
2022-09-23T22:07:01.370Z,65.83
2022-09-23T22:10:03.950Z,65.76
2022-09-23T22:13:12.532Z,65.56
2022-09-23T22:16:16.735Z,66.15
2022-09-23T22:19:19.198Z,66.25
2022-09-23T22:22:21.649Z,66.27
2022-09-23T22:25:24.483Z,65.65
2022-09-23T22:28:47.655Z,65.67
2022-09-23T22:32:08.426Z,67.03
2022-09-23T22:35:19.925Z,67.21
2022-09-23T22:38:22.040Z,67.66
2022-09-23T22:41:25.600Z,68.61
2022-09-23T22:44:29.409Z,68.50
2022-09-23T22:47:37.575Z,69.06
2022-09-23T22:50:39.861Z,68.85
2022-09-23T22:53:41.935Z,69.20
2022-09-23T22:56:44.065Z,69.82
2022-09-23T22:59:48.257Z,70.29
2022-09-23T23:02:50.581Z,70.58
2022-09-23T23:05:57.442Z,71.74
2022-09-23T23:09:00.054Z,71.89
2022-09-23T23:12:02.721Z,71.56
2022-09-23T23:15:05.306Z,70.47
2022-09-23T23:18:07.387Z,70.89
2022-09-23T23:21:14.705Z,69.83
2022-09-23T23:24:19.362Z,68.98
2022-09-23T23:27:21.459Z,69.74
2022-09-23T23:30:23.946Z,70.25
2022-09-23T23:33:26.079Z,70.07
2022-09-23T23:36:28.457Z,70.45
2022-09-23T23:39:30.671Z,70.76
2022-09-23T23:42:32.967Z,71.03
2022-09-23T23:45:35.481Z,71.64
2022-09-23T23:48:37.847Z,71.67
2022-09-23T23:51:41.158Z,72.22
2022-09-23T23:54:43.259Z,72.58
2022-09-23T23:57:45.322Z,73.06
